createdAt,value
2018-08-22T00:00:19.341Z,24.70
2018-08-22T00:01:24.370Z,24.70
2018-08-22T00:02:28.956Z,24.70
2018-08-22T00:03:34.022Z,24.70
2018-08-22T00:04:39.129Z,24.70
2018-08-22T00:05:43.407Z,24.70
2018-08-22T00:06:47.716Z,24.70
2018-08-22T00:07:52.675Z,24.70
2018-08-22T00:08:57.023Z,24.70
2018-08-22T00:10:02.074Z,24.70
2018-08-22T00:11:06.356Z,24.70
2018-08-22T00:12:11.502Z,24.70
2018-08-22T00:13:16.515Z,24.70
2018-08-22T00:14:21.569Z,24.70
2018-08-22T00:15:25.897Z,24.70
2018-08-22T00:16:30.264Z,24.70
2018-08-22T00:17:34.582Z,24.70
2018-08-22T00:18:38.841Z,24.70
2018-08-22T00:19:43.145Z,24.70
2018-08-22T00:20:48.186Z,24.70
2018-08-22T00:21:52.473Z,24.70
2018-08-22T00:22:56.708Z,24.70
2018-08-22T00:24:00.941Z,24.70
2018-08-22T00:25:06.027Z,24.70
2018-08-22T00:26:10.330Z,24.70
2018-08-22T00:27:14.642Z,24.70
2018-08-22T00:28:18.918Z,24.70
2018-08-22T00:29:23.945Z,24.70
2018-08-22T00:30:29.079Z,24.70
2018-08-22T00:31:34.177Z,24.70
2018-08-22T00:32:39.176Z,24.70
2018-08-22T00:33:43.388Z,24.70
2018-08-22T00:34:48.437Z,24.70
2018-08-22T00:35:52.738Z,24.70
2018-08-22T00:36:56.974Z,24.70
2018-08-22T00:38:01.976Z,24.70
2018-08-22T00:39:06.972Z,24.70
2018-08-22T00:40:11.199Z,24.70
2018-08-22T00:41:15.443Z,24.70
2018-08-22T00:42:20.480Z,24.70
2018-08-22T00:43:24.865Z,24.70
2018-08-22T00:44:29.942Z,24.60
2018-08-22T00:45:34.241Z,24.70
2018-08-22T00:46:38.481Z,24.70
2018-08-22T00:47:42.697Z,24.70
2018-08-22T00:48:47.022Z,24.70
2018-08-22T00:49:51.302Z,24.70
2018-08-22T00:50:55.547Z,24.70
2018-08-22T00:51:59.848Z,24.70
2018-08-22T00:53:04.902Z,24.70
2018-08-22T00:54:09.913Z,24.70
2018-08-22T00:55:14.158Z,24.70
2018-08-22T00:56:19.169Z,24.70
2018-08-22T00:57:24.222Z,24.70
2018-08-22T00:58:29.377Z,24.60
2018-08-22T00:59:33.642Z,24.70
2018-08-22T01:00:37.902Z,24.70
2018-08-22T01:01:42.878Z,24.70
2018-08-22T01:02:47.967Z,24.70
2018-08-22T01:03:52.276Z,24.70
2018-08-22T01:04:57.321Z,24.70
2018-08-22T01:06:01.571Z,24.70
2018-08-22T01:07:05.920Z,24.70
2018-08-22T01:08:10.960Z,24.70
2018-08-22T01:09:16.008Z,24.70
2018-08-22T01:10:20.356Z,24.70
2018-08-22T01:11:24.651Z,24.60
2018-08-22T01:12:28.918Z,24.60
2018-08-22T01:13:34.072Z,24.70
2018-08-22T01:14:38.365Z,24.70
2018-08-22T01:15:43.463Z,24.70
2018-08-22T01:16:47.802Z,24.60
2018-08-22T01:17:52.094Z,24.60
2018-08-22T01:18:56.327Z,24.60
2018-08-22T01:20:00.582Z,24.60
2018-08-22T01:21:04.815Z,24.60
2018-08-22T01:22:09.883Z,24.60
2018-08-22T01:23:14.974Z,24.60
2018-08-22T01:24:20.041Z,24.60
2018-08-22T01:25:24.318Z,24.60
2018-08-22T01:26:28.590Z,24.60
2018-08-22T01:27:33.669Z,24.60
2018-08-22T01:28:37.957Z,24.60
2018-08-22T01:29:43.004Z,24.60
2018-08-22T01:30:48.031Z,24.60
2018-08-22T01:31:52.294Z,24.60
2018-08-22T01:32:56.533Z,24.60
2018-08-22T01:34:01.580Z,24.70
2018-08-22T01:35:07.057Z,24.60
2018-08-22T01:36:12.126Z,24.60
2018-08-22T01:37:16.391Z,24.60
2018-08-22T01:38:21.344Z,24.60
2018-08-22T01:39:25.610Z,24.70
2018-08-22T01:40:30.759Z,24.60
2018-08-22T01:41:35.763Z,24.60
2018-08-22T01:42:40.013Z,24.70
2018-08-22T01:43:44.963Z,24.60
2018-08-22T01:44:50.017Z,24.60
2018-08-22T01:45:54.339Z,24.60
2018-08-22T01:46:58.655Z,24.60
2018-08-22T01:48:03.714Z,24.60
2018-08-22T01:49:08.786Z,24.60
2018-08-22T01:50:13.819Z,24.60
2018-08-22T01:51:18.102Z,24.60
2018-08-22T01:52:22.351Z,24.60
2018-08-22T01:53:26.694Z,24.60
2018-08-22T01:54:31.021Z,24.60
2018-08-22T01:55:35.347Z,24.60
2018-08-22T01:56:40.334Z,24.60
2018-08-22T01:57:45.333Z,24.60
2018-08-22T01:58:49.731Z,24.60
2018-08-22T01:59:53.980Z,24.60
2018-08-22T02:00:58.305Z,24.60
2018-08-22T02:02:02.539Z,24.60
2018-08-22T02:03:07.536Z,24.60
2018-08-22T02:04:12.582Z,24.60
2018-08-22T02:05:17.629Z,24.60
2018-08-22T02:06:22.781Z,24.60
2018-08-22T02:07:27.962Z,24.60
2018-08-22T02:08:32.362Z,24.60
2018-08-22T02:09:37.365Z,24.60
2018-08-22T02:10:41.617Z,24.60
2018-08-22T02:11:45.835Z,24.60
2018-08-22T02:12:50.800Z,24.60
2018-08-22T02:13:55.109Z,24.60
2018-08-22T02:14:59.376Z,24.60
2018-08-22T02:16:04.390Z,24.60
2018-08-22T02:17:08.692Z,24.60
2018-08-22T02:18:12.985Z,24.60
2018-08-22T02:19:17.223Z,24.60
2018-08-22T02:20:21.473Z,24.60
2018-08-22T02:21:25.761Z,24.60
2018-08-22T02:22:30.176Z,24.60
2018-08-22T02:23:34.528Z,24.60
2018-08-22T02:24:39.519Z,24.60
2018-08-22T02:25:44.546Z,24.60
2018-08-22T02:26:49.529Z,24.60
2018-08-22T02:27:53.913Z,24.60
2018-08-22T02:28:58.934Z,24.60
2018-08-22T02:30:03.213Z,24.60
2018-08-22T02:31:07.619Z,24.60
2018-08-22T02:32:12.601Z,24.60
2018-08-22T02:33:16.986Z,24.60
2018-08-22T02:34:22.045Z,24.60
2018-08-22T02:35:26.347Z,24.60
2018-08-22T02:36:31.369Z,24.60
2018-08-22T02:37:35.813Z,24.60
2018-08-22T02:38:40.885Z,24.60
2018-08-22T02:39:45.360Z,24.60
2018-08-22T02:40:49.786Z,24.60
2018-08-22T02:41:54.847Z,24.60
2018-08-22T02:42:59.276Z,24.60
2018-08-22T02:44:03.767Z,24.60
2018-08-22T02:45:08.030Z,24.60
2018-08-22T02:46:13.104Z,24.60
2018-08-22T02:47:17.497Z,24.60
2018-08-22T02:48:21.934Z,24.60
2018-08-22T02:49:26.348Z,24.60
2018-08-22T02:50:30.743Z,24.60
2018-08-22T02:51:35.114Z,24.60
2018-08-22T02:52:39.546Z,24.60
2018-08-22T02:53:44.509Z,24.60
2018-08-22T02:54:48.958Z,24.60
2018-08-22T02:55:53.971Z,24.60
2018-08-22T02:56:58.271Z,24.60
2018-08-22T02:58:02.748Z,24.60
2018-08-22T02:59:07.039Z,24.60
2018-08-22T03:00:11.955Z,24.60
2018-08-22T03:01:16.999Z,24.60
2018-08-22T03:02:21.641Z,24.60
2018-08-22T03:03:26.615Z,24.60
2018-08-22T03:04:31.123Z,24.60
2018-08-22T03:05:35.518Z,24.60
2018-08-22T03:06:39.948Z,24.60
2018-08-22T03:07:44.914Z,24.50
2018-08-22T03:08:49.289Z,24.60
2018-08-22T03:09:53.558Z,24.60
2018-08-22T03:10:58.515Z,24.60
2018-08-22T03:12:02.848Z,24.60
2018-08-22T03:13:07.926Z,24.50
2018-08-22T03:14:12.558Z,24.60
2018-08-22T03:15:18.333Z,24.60
2018-08-22T03:16:22.752Z,24.50
2018-08-22T03:17:27.112Z,24.50
2018-08-22T03:18:31.519Z,24.60
2018-08-22T03:19:36.509Z,24.50
2018-08-22T03:20:40.931Z,24.50
2018-08-22T03:21:45.237Z,24.50
2018-08-22T03:22:49.730Z,24.50
2018-08-22T03:23:54.076Z,24.50
2018-08-22T03:24:58.355Z,24.50
2018-08-22T03:26:03.351Z,24.50
2018-08-22T03:27:07.797Z,24.50
2018-08-22T03:28:12.831Z,24.50
2018-08-22T03:29:17.825Z,24.50
2018-08-22T03:30:22.111Z,24.50
2018-08-22T03:31:26.535Z,24.50
2018-08-22T03:32:30.919Z,24.50
2018-08-22T03:33:35.424Z,24.50
2018-08-22T03:34:40.451Z,24.60
2018-08-22T03:35:44.798Z,24.50
2018-08-22T03:36:49.236Z,24.50
2018-08-22T03:37:54.233Z,24.50
2018-08-22T03:38:58.603Z,24.50
2018-08-22T03:40:03.056Z,24.50
2018-08-22T03:41:07.334Z,24.50
2018-08-22T03:42:11.811Z,24.50
2018-08-22T03:43:16.175Z,24.50
2018-08-22T03:44:20.470Z,24.50
2018-08-22T03:45:24.955Z,24.50
2018-08-22T03:46:29.384Z,24.50
2018-08-22T03:47:33.783Z,24.50
2018-08-22T03:48:38.223Z,24.50
2018-08-22T03:49:42.502Z,24.50
2018-08-22T03:50:46.835Z,24.50
2018-08-22T03:51:51.321Z,24.50
2018-08-22T03:52:56.375Z,24.50
2018-08-22T03:54:00.883Z,24.50
2018-08-22T03:55:05.171Z,24.50
2018-08-22T03:56:09.545Z,24.50
2018-08-22T03:57:13.802Z,24.50
2018-08-22T03:58:18.193Z,24.50
2018-08-22T03:59:22.650Z,24.50
2018-08-22T04:00:27.093Z,24.50
2018-08-22T04:01:31.422Z,24.50
2018-08-22T04:02:35.788Z,24.50
2018-08-22T04:03:40.266Z,24.50
2018-08-22T04:04:45.278Z,24.50
2018-08-22T04:05:49.736Z,24.50
2018-08-22T04:06:54.773Z,24.50
2018-08-22T04:07:59.230Z,24.50
2018-08-22T04:09:03.731Z,24.50
2018-08-22T04:10:08.235Z,24.50
2018-08-22T04:11:13.467Z,24.50
2018-08-22T04:12:18.021Z,24.50
2018-08-22T04:13:22.418Z,24.50
2018-08-22T04:14:26.838Z,24.50
2018-08-22T04:15:31.797Z,24.50
2018-08-22T04:16:36.242Z,24.50
2018-08-22T04:17:41.306Z,24.50
2018-08-22T04:18:45.599Z,24.50
2018-08-22T04:19:49.915Z,24.50
2018-08-22T04:20:54.948Z,24.50
2018-08-22T04:21:59.278Z,24.50
2018-08-22T04:23:04.303Z,24.50
2018-08-22T04:24:08.724Z,24.50
2018-08-22T04:25:13.172Z,24.50
2018-08-22T04:26:17.875Z,24.50
2018-08-22T04:27:22.189Z,24.50
2018-08-22T04:28:26.601Z,24.50
2018-08-22T04:29:31.071Z,24.50
2018-08-22T04:30:35.407Z,24.50
2018-08-22T04:31:39.893Z,24.50
2018-08-22T04:32:44.206Z,24.50
2018-08-22T04:33:48.661Z,24.50
2018-08-22T04:34:53.667Z,24.50
2018-08-22T04:35:58.895Z,24.50
2018-08-22T04:37:03.230Z,24.50
2018-08-22T04:38:07.787Z,24.50
2018-08-22T04:39:12.220Z,24.50
2018-08-22T04:40:16.551Z,24.50
2018-08-22T04:41:21.049Z,24.50
2018-08-22T04:42:25.579Z,24.50
2018-08-22T04:43:30.643Z,24.50
2018-08-22T04:44:35.192Z,24.50
2018-08-22T04:45:39.482Z,24.50
2018-08-22T04:46:44.509Z,24.50
2018-08-22T04:47:48.861Z,24.40
2018-08-22T04:48:53.315Z,24.50
2018-08-22T04:49:57.734Z,24.50
2018-08-22T04:51:02.041Z,24.50
2018-08-22T04:52:06.422Z,24.50
2018-08-22T04:53:10.902Z,24.50
2018-08-22T04:54:15.884Z,24.50
2018-08-22T04:55:20.296Z,24.40
2018-08-22T04:56:25.374Z,24.50
2018-08-22T04:57:29.761Z,24.50
2018-08-22T04:58:34.626Z,24.40
2018-08-22T04:59:39.045Z,24.50
2018-08-22T05:00:43.470Z,24.50
2018-08-22T05:01:48.434Z,24.50
2018-08-22T05:02:52.784Z,24.40
2018-08-22T05:03:57.070Z,24.50
2018-08-22T05:05:01.499Z,24.40
2018-08-22T05:06:06.075Z,24.40
2018-08-22T05:07:10.570Z,24.50
2018-08-22T05:08:15.680Z,24.40
2018-08-22T05:09:20.073Z,24.40
2018-08-22T05:10:24.594Z,24.50
2018-08-22T05:11:28.877Z,24.40
2018-08-22T05:12:33.319Z,24.40
2018-08-22T05:13:37.703Z,24.50
2018-08-22T05:14:42.090Z,24.50
2018-08-22T05:15:46.606Z,24.50
2018-08-22T05:16:51.650Z,24.50
2018-08-22T05:17:55.991Z,24.50
2018-08-22T05:19:00.443Z,24.50
2018-08-22T05:20:04.880Z,24.50
2018-08-22T05:21:09.896Z,24.50
2018-08-22T05:22:14.254Z,24.40
2018-08-22T05:23:18.680Z,24.50
2018-08-22T05:24:22.951Z,24.40
2018-08-22T05:25:28.029Z,24.40
2018-08-22T05:26:32.815Z,24.40
2018-08-22T05:27:37.243Z,24.40
2018-08-22T05:28:41.707Z,24.40
2018-08-22T05:29:45.946Z,24.40
2018-08-22T05:30:50.929Z,24.40
2018-08-22T05:31:55.267Z,24.40
2018-08-22T05:32:59.725Z,24.40
2018-08-22T05:34:04.022Z,24.40
2018-08-22T05:35:08.315Z,24.40
2018-08-22T05:36:12.684Z,24.40
2018-08-22T05:37:17.646Z,24.40
2018-08-22T05:38:22.614Z,24.40
2018-08-22T05:39:27.119Z,24.40
2018-08-22T05:40:31.396Z,24.50
2018-08-22T05:41:35.835Z,24.40
2018-08-22T05:42:40.317Z,24.40
2018-08-22T05:43:44.565Z,24.50
2018-08-22T05:44:48.964Z,24.50
2018-08-22T05:45:53.599Z,24.40
2018-08-22T05:46:58.688Z,24.50
2018-08-22T05:48:04.921Z,24.50
2018-08-22T05:49:12.370Z,24.50
2018-08-22T05:50:16.923Z,24.50
2018-08-22T05:51:21.365Z,24.50
2018-08-22T05:52:25.729Z,24.50
2018-08-22T05:53:30.117Z,24.50
2018-08-22T05:54:35.128Z,24.50
2018-08-22T05:55:40.153Z,24.50
2018-08-22T05:56:44.508Z,24.50
2018-08-22T05:57:48.907Z,24.40
2018-08-22T05:58:53.999Z,24.50
2018-08-22T05:59:59.023Z,24.40
2018-08-22T06:01:04.100Z,24.40
2018-08-22T06:02:08.346Z,24.40
2018-08-22T06:03:12.784Z,24.50
2018-08-22T06:04:17.178Z,24.50
2018-08-22T06:05:21.564Z,24.50
2018-08-22T06:06:25.951Z,24.40
2018-08-22T06:07:30.380Z,24.50
2018-08-22T06:08:34.697Z,24.50
2018-08-22T06:09:39.165Z,24.40
2018-08-22T06:10:44.132Z,24.40
2018-08-22T06:11:48.357Z,24.50
2018-08-22T06:12:52.738Z,24.40
2018-08-22T06:13:56.975Z,24.50
2018-08-22T06:15:02.037Z,24.40
2018-08-22T06:16:06.417Z,24.40
2018-08-22T06:17:11.467Z,24.40
2018-08-22T06:18:15.937Z,24.40
2018-08-22T06:19:20.950Z,24.40
2018-08-22T06:20:25.362Z,24.40
2018-08-22T06:21:29.652Z,24.40
2018-08-22T06:22:34.750Z,24.40
2018-08-22T06:23:39.835Z,24.40
2018-08-22T06:24:44.221Z,24.50
2018-08-22T06:25:49.204Z,24.40
2018-08-22T06:26:53.595Z,24.40
2018-08-22T06:27:57.946Z,24.50
2018-08-22T06:29:02.219Z,24.40
2018-08-22T06:30:06.653Z,24.40
2018-08-22T06:31:11.021Z,24.50
2018-08-22T06:32:15.997Z,24.50
2018-08-22T06:33:20.454Z,24.40
2018-08-22T06:34:24.853Z,24.50
2018-08-22T06:35:29.175Z,24.50
2018-08-22T06:36:34.163Z,24.40
2018-08-22T06:37:38.394Z,24.50
2018-08-22T06:38:42.833Z,24.50
2018-08-22T06:39:47.210Z,24.50
2018-08-22T06:40:51.596Z,24.50
2018-08-22T06:41:55.874Z,24.50
2018-08-22T06:43:00.283Z,24.50
2018-08-22T06:44:04.703Z,24.50
2018-08-22T06:45:08.926Z,24.50
2018-08-22T06:46:13.961Z,24.50
2018-08-22T06:47:18.342Z,24.50
2018-08-22T06:48:22.807Z,24.50
2018-08-22T06:49:27.328Z,24.50
2018-08-22T06:50:31.728Z,24.50
2018-08-22T06:51:36.705Z,24.50
2018-08-22T06:52:40.928Z,24.50
2018-08-22T06:53:45.327Z,24.50
2018-08-22T06:54:50.297Z,24.50
2018-08-22T06:55:54.730Z,24.50
2018-08-22T06:56:59.172Z,24.50
2018-08-22T06:58:03.585Z,24.50
2018-08-22T06:59:08.040Z,24.50
2018-08-22T07:00:13.033Z,24.50
2018-08-22T07:01:17.519Z,24.50
2018-08-22T07:02:21.964Z,24.50
2018-08-22T07:03:27.099Z,24.50
2018-08-22T07:04:31.352Z,24.50
2018-08-22T07:05:36.397Z,24.50
2018-08-22T07:06:40.722Z,24.50
2018-08-22T07:07:45.168Z,24.50
2018-08-22T07:08:49.396Z,24.50
2018-08-22T07:09:53.684Z,24.50
2018-08-22T07:10:58.008Z,24.50
2018-08-22T07:12:02.385Z,24.50
2018-08-22T07:13:06.646Z,24.50
2018-08-22T07:14:11.290Z,24.50
2018-08-22T07:15:15.470Z,24.50
2018-08-22T07:16:20.458Z,24.50
2018-08-22T07:17:25.513Z,24.50
2018-08-22T07:18:29.824Z,24.50
2018-08-22T07:19:34.852Z,24.50
2018-08-22T07:20:39.098Z,24.60
2018-08-22T07:21:44.128Z,24.50
2018-08-22T07:22:48.563Z,24.50
2018-08-22T07:23:52.927Z,24.50
2018-08-22T07:24:57.377Z,24.50
2018-08-22T07:26:01.795Z,24.50
2018-08-22T07:27:06.268Z,24.50
2018-08-22T07:28:10.668Z,24.50
2018-08-22T07:29:15.625Z,24.50
2018-08-22T07:30:20.101Z,24.50
2018-08-22T07:31:24.368Z,24.60
2018-08-22T07:32:29.416Z,24.60
2018-08-22T07:33:33.812Z,24.50
2018-08-22T07:34:38.275Z,24.60
2018-08-22T07:35:42.835Z,24.60
2018-08-22T07:36:47.851Z,24.60
2018-08-22T07:37:52.917Z,24.60
2018-08-22T07:38:57.359Z,24.60
2018-08-22T07:40:01.900Z,24.60
2018-08-22T07:41:06.117Z,24.60
2018-08-22T07:42:10.578Z,24.60
2018-08-22T07:43:15.618Z,24.60
2018-08-22T07:44:20.684Z,24.60
2018-08-22T07:45:25.181Z,24.60
2018-08-22T07:46:29.560Z,24.60
2018-08-22T07:47:34.009Z,24.60
2018-08-22T07:48:38.417Z,24.60
2018-08-22T07:49:42.893Z,24.60
2018-08-22T07:50:47.287Z,24.60
2018-08-22T07:51:51.526Z,24.60
2018-08-22T07:52:56.008Z,24.60
2018-08-22T07:54:00.390Z,24.60
2018-08-22T07:55:04.803Z,24.60
2018-08-22T07:56:09.290Z,24.60
2018-08-22T07:57:13.715Z,24.60
2018-08-22T07:58:18.185Z,24.60
2018-08-22T07:59:22.537Z,24.60
2018-08-22T08:00:26.897Z,24.70
2018-08-22T08:01:31.503Z,24.60
2018-08-22T08:02:35.960Z,24.50
2018-08-22T08:03:41.306Z,24.60
2018-08-22T08:04:46.409Z,24.60
2018-08-22T08:05:50.760Z,24.70
2018-08-22T08:06:55.140Z,24.70
2018-08-22T08:07:59.597Z,24.70
2018-08-22T08:09:04.212Z,24.70
2018-08-22T08:10:09.262Z,24.70
2018-08-22T08:11:18.204Z,24.70
2018-08-22T08:12:22.518Z,24.70
2018-08-22T08:13:27.026Z,24.70
2018-08-22T08:14:31.456Z,24.70
2018-08-22T08:15:36.104Z,24.70
2018-08-22T08:16:40.573Z,24.70
2018-08-22T08:17:44.935Z,24.70
2018-08-22T08:18:49.356Z,24.70
2018-08-22T08:19:53.700Z,24.70
2018-08-22T08:20:58.137Z,24.70
2018-08-22T08:22:03.271Z,24.70
2018-08-22T08:23:07.765Z,24.70
2018-08-22T08:24:12.105Z,24.70
2018-08-22T08:25:17.235Z,24.70
2018-08-22T08:26:21.628Z,24.70
2018-08-22T08:27:26.131Z,24.70
2018-08-22T08:28:30.632Z,24.70
2018-08-22T08:29:35.866Z,24.70
2018-08-22T08:30:40.380Z,24.70
2018-08-22T08:31:44.796Z,24.70
2018-08-22T08:32:49.257Z,24.70
2018-08-22T08:33:53.589Z,24.70
2018-08-22T08:34:58.952Z,24.70
2018-08-22T08:36:04.204Z,24.70
2018-08-22T08:37:08.588Z,24.70
2018-08-22T08:38:13.447Z,24.70
2018-08-22T08:39:17.925Z,24.70
2018-08-22T08:40:22.231Z,24.70
2018-08-22T08:41:26.907Z,24.70
2018-08-22T08:42:31.510Z,24.70
2018-08-22T08:43:36.491Z,24.70
2018-08-22T08:44:40.829Z,24.70
2018-08-22T08:45:45.421Z,24.70
2018-08-22T08:46:49.871Z,24.70
2018-08-22T08:47:54.227Z,24.70
2018-08-22T08:48:59.297Z,24.70
2018-08-22T08:50:04.069Z,24.70
2018-08-22T08:51:08.602Z,24.70
2018-08-22T08:52:13.258Z,24.70
2018-08-22T08:53:17.815Z,24.70
2018-08-22T08:54:22.247Z,24.70
2018-08-22T08:55:26.734Z,24.70
2018-08-22T08:56:31.355Z,24.70
2018-08-22T08:57:36.562Z,24.70
2018-08-22T08:58:41.748Z,24.70
2018-08-22T08:59:46.312Z,24.70
2018-08-22T09:00:51.400Z,24.70
2018-08-22T09:01:55.869Z,24.70
2018-08-22T09:03:00.448Z,24.70
2018-08-22T09:04:04.920Z,24.70
2018-08-22T09:05:09.291Z,24.70
2018-08-22T09:06:13.755Z,24.70
2018-08-22T09:07:18.268Z,24.70
2018-08-22T09:08:22.797Z,24.70
2018-08-22T09:09:27.196Z,24.70
2018-08-22T09:10:31.713Z,24.70
2018-08-22T09:11:36.275Z,24.70
2018-08-22T09:12:40.792Z,24.70
2018-08-22T09:13:45.348Z,24.70
2018-08-22T09:14:50.429Z,24.70
2018-08-22T09:15:54.976Z,24.80
2018-08-22T09:17:00.185Z,24.80
2018-08-22T09:18:04.688Z,24.80
2018-08-22T09:19:09.110Z,24.80
2018-08-22T09:20:13.446Z,24.80
2018-08-22T09:21:17.951Z,24.80
2018-08-22T09:22:23.788Z,24.80
2018-08-22T09:23:28.368Z,24.80
2018-08-22T09:24:32.949Z,24.70
2018-08-22T09:25:38.075Z,24.70
2018-08-22T09:26:42.483Z,24.70
2018-08-22T09:27:47.080Z,24.80
2018-08-22T09:28:51.668Z,24.80
2018-08-22T09:29:56.829Z,24.80
2018-08-22T09:31:01.908Z,24.70
2018-08-22T09:32:06.465Z,24.80
2018-08-22T09:33:10.937Z,24.80
2018-08-22T09:34:15.454Z,24.80
2018-08-22T09:35:20.038Z,24.80
2018-08-22T09:36:25.175Z,24.80
2018-08-22T09:37:29.790Z,24.80
2018-08-22T09:38:34.172Z,24.80
2018-08-22T09:39:38.789Z,24.80
2018-08-22T09:40:43.374Z,24.80
2018-08-22T09:41:47.879Z,24.80
2018-08-22T09:42:52.509Z,24.80
2018-08-22T09:43:57.280Z,24.80
2018-08-22T09:45:02.152Z,24.80
2018-08-22T09:46:07.154Z,24.80
2018-08-22T09:47:11.741Z,24.80
2018-08-22T09:48:16.942Z,24.80
2018-08-22T09:49:21.715Z,24.80
2018-08-22T09:50:27.168Z,24.80
2018-08-22T09:51:31.843Z,24.80
2018-08-22T09:52:36.212Z,24.80
2018-08-22T09:53:41.169Z,24.80
2018-08-22T09:53:52.970Z,24.80
2018-08-22T09:54:57.434Z,24.80
2018-08-22T09:56:02.025Z,24.80
2018-08-22T09:57:07.171Z,24.80
2018-08-22T09:58:11.690Z,24.80
2018-08-22T09:59:16.076Z,24.80
2018-08-22T10:00:21.118Z,24.80
2018-08-22T10:01:25.460Z,24.80
2018-08-22T10:02:29.909Z,24.80
2018-08-22T10:03:34.357Z,24.80
2018-08-22T10:04:38.698Z,24.80
2018-08-22T10:05:43.092Z,24.80
2018-08-22T10:06:47.700Z,24.80
2018-08-22T10:07:52.002Z,24.80
2018-08-22T10:08:57.099Z,24.80
2018-08-22T10:10:02.267Z,24.80
2018-08-22T10:11:06.598Z,24.80
2018-08-22T10:12:10.857Z,24.80
2018-08-22T10:13:15.050Z,24.90
2018-08-22T10:14:19.402Z,24.80
2018-08-22T10:15:23.648Z,24.80
2018-08-22T10:16:27.942Z,24.90
2018-08-22T10:17:32.372Z,24.80
2018-08-22T10:18:37.436Z,24.90
2018-08-22T10:19:41.917Z,24.90
2018-08-22T10:20:46.175Z,24.90
2018-08-22T10:20:57.641Z,24.80
2018-08-22T10:22:02.644Z,24.80
2018-08-22T10:23:07.123Z,24.90
2018-08-22T10:24:11.585Z,24.90
2018-08-22T10:25:15.972Z,24.90
2018-08-22T10:26:21.041Z,24.80
2018-08-22T10:27:25.359Z,24.90
2018-08-22T10:28:29.698Z,24.90
2018-08-22T10:29:34.822Z,24.90
2018-08-22T10:30:39.412Z,24.90
2018-08-22T10:31:43.856Z,24.90
2018-08-22T10:32:48.349Z,24.90
2018-08-22T10:33:52.796Z,24.90
2018-08-22T10:34:57.194Z,24.90
2018-08-22T10:36:02.140Z,24.90
2018-08-22T10:37:07.005Z,24.90
2018-08-22T10:38:11.938Z,24.90
2018-08-22T10:39:16.743Z,24.90
2018-08-22T10:40:21.274Z,24.90
2018-08-22T10:41:29.876Z,24.90
2018-08-22T10:42:34.859Z,24.90
2018-08-22T10:43:39.987Z,24.90
2018-08-22T10:44:44.509Z,24.90
2018-08-22T10:45:49.105Z,24.90
2018-08-22T10:46:54.189Z,24.90
2018-08-22T10:47:58.862Z,24.90
2018-08-22T10:49:03.347Z,24.90
2018-08-22T10:50:08.204Z,24.90
2018-08-22T10:51:12.578Z,24.90
2018-08-22T10:52:18.085Z,24.90
2018-08-22T10:53:23.209Z,24.90
2018-08-22T10:54:28.783Z,25.00
2018-08-22T10:55:33.196Z,25.00
2018-08-22T10:56:37.593Z,25.00
2018-08-22T10:57:42.092Z,25.00
2018-08-22T10:58:46.689Z,25.00
2018-08-22T10:59:51.308Z,25.00
2018-08-22T11:00:56.001Z,25.00
2018-08-22T11:02:00.653Z,25.00
2018-08-22T11:03:05.836Z,25.10
2018-08-22T11:04:10.609Z,25.10
2018-08-22T11:05:15.941Z,25.10
2018-08-22T11:06:20.281Z,25.10
2018-08-22T11:07:25.484Z,25.10
2018-08-22T11:08:30.677Z,25.10
2018-08-22T11:09:35.274Z,25.10
2018-08-22T11:10:39.788Z,25.10
2018-08-22T11:11:44.877Z,25.10
2018-08-22T11:12:49.563Z,25.10
2018-08-22T11:13:54.088Z,25.10
2018-08-22T11:14:58.414Z,25.10
2018-08-22T11:16:03.203Z,25.10
2018-08-22T11:17:07.899Z,25.10
2018-08-22T11:18:12.382Z,25.10
2018-08-22T11:19:21.108Z,25.10
2018-08-22T11:20:25.570Z,25.10
2018-08-22T11:21:30.785Z,25.10
2018-08-22T11:22:35.365Z,25.10
2018-08-22T11:23:41.019Z,25.10
2018-08-22T11:24:45.420Z,25.20
2018-08-22T11:25:50.878Z,25.20
2018-08-22T11:26:56.123Z,25.20
2018-08-22T11:28:00.599Z,25.10
2018-08-22T11:29:06.295Z,25.10
2018-08-22T11:30:10.905Z,25.10
2018-08-22T11:31:15.549Z,25.10
2018-08-22T11:32:20.698Z,25.10
2018-08-22T11:32:33.210Z,25.10
2018-08-22T11:33:37.750Z,25.10
2018-08-22T11:34:42.296Z,25.10
2018-08-22T11:35:48.212Z,25.10
2018-08-22T11:36:54.507Z,25.10
2018-08-22T11:38:00.644Z,25.10
2018-08-22T11:39:08.090Z,25.10
2018-08-22T11:40:15.448Z,25.10
2018-08-22T11:41:23.103Z,25.10
2018-08-22T11:42:29.162Z,25.10
2018-08-22T11:43:34.442Z,25.10
2018-08-22T11:44:40.217Z,25.10
2018-08-22T11:45:46.291Z,25.10
2018-08-22T11:46:51.940Z,25.10
2018-08-22T11:47:57.962Z,25.10
2018-08-22T11:49:07.204Z,25.10
2018-08-22T11:50:12.915Z,25.10
2018-08-22T11:51:19.143Z,25.10
2018-08-22T11:52:24.772Z,25.10
2018-08-22T11:53:29.760Z,25.10
2018-08-22T11:54:35.440Z,25.10
2018-08-22T11:55:41.006Z,25.10
2018-08-22T11:56:45.879Z,25.10
2018-08-22T11:57:50.936Z,25.10
2018-08-22T11:58:55.629Z,25.10
2018-08-22T12:00:00.435Z,25.10
2018-08-22T12:01:06.222Z,25.10
2018-08-22T12:02:11.306Z,25.10
2018-08-22T12:03:16.240Z,25.10
2018-08-22T12:04:21.984Z,25.10
2018-08-22T12:05:27.871Z,25.10
2018-08-22T12:06:33.653Z,25.10
2018-08-22T12:07:38.919Z,25.00
2018-08-22T12:08:43.876Z,25.10
2018-08-22T12:09:48.983Z,25.10
2018-08-22T12:10:54.009Z,25.10
2018-08-22T12:11:58.848Z,25.10
2018-08-22T12:13:04.134Z,25.10
2018-08-22T12:14:09.287Z,25.10
2018-08-22T12:15:14.246Z,25.10
2018-08-22T12:16:20.079Z,25.10
2018-08-22T12:17:25.485Z,25.10
2018-08-22T12:18:31.264Z,25.10
2018-08-22T12:19:36.076Z,25.10
2018-08-22T12:20:41.040Z,25.10
2018-08-22T12:21:45.637Z,25.00
2018-08-22T12:22:50.271Z,25.00
2018-08-22T12:23:55.367Z,25.00
2018-08-22T12:24:59.960Z,25.10
2018-08-22T12:26:04.530Z,25.00
2018-08-22T12:27:09.533Z,25.10
2018-08-22T12:28:13.859Z,25.10
2018-08-22T12:29:18.302Z,25.10
2018-08-22T12:30:22.653Z,25.10
2018-08-22T12:31:27.695Z,25.10
2018-08-22T12:32:32.838Z,25.10
2018-08-22T12:33:37.214Z,25.10
2018-08-22T12:34:41.702Z,25.10
2018-08-22T12:35:46.106Z,25.10
2018-08-22T12:36:50.645Z,25.10
2018-08-22T12:37:56.146Z,25.10
2018-08-22T12:39:01.192Z,25.10
2018-08-22T12:40:07.430Z,25.10
2018-08-22T12:41:11.823Z,25.10
2018-08-22T12:42:16.270Z,25.10
2018-08-22T12:43:20.767Z,25.10
2018-08-22T12:44:26.064Z,25.10
2018-08-22T12:45:31.135Z,25.10
2018-08-22T12:46:35.380Z,25.10
2018-08-22T12:47:39.646Z,25.10
2018-08-22T12:48:44.343Z,25.10
2018-08-22T12:49:48.852Z,25.10
2018-08-22T12:50:53.206Z,25.10
2018-08-22T12:51:58.326Z,25.10
2018-08-22T12:53:03.545Z,25.10
2018-08-22T12:54:08.125Z,25.10
2018-08-22T12:55:13.291Z,25.10
2018-08-22T12:56:17.906Z,25.10
2018-08-22T12:57:22.417Z,25.10
2018-08-22T12:58:26.914Z,25.10
2018-08-22T12:59:31.399Z,25.10
2018-08-22T13:00:35.869Z,25.00
2018-08-22T13:01:40.548Z,25.00
2018-08-22T13:02:44.933Z,25.00
2018-08-22T13:03:49.368Z,25.00
2018-08-22T13:04:53.753Z,25.00
2018-08-22T13:05:58.276Z,25.00
2018-08-22T13:07:02.504Z,25.00
2018-08-22T13:08:06.891Z,25.00
2018-08-22T13:09:11.437Z,25.00
2018-08-22T13:10:15.949Z,25.00
2018-08-22T13:11:21.203Z,25.00
2018-08-22T13:12:25.528Z,25.00
2018-08-22T13:13:29.923Z,25.00
2018-08-22T13:14:36.409Z,25.00
2018-08-22T13:15:40.955Z,25.00
2018-08-22T13:16:45.166Z,25.00
2018-08-22T13:17:49.665Z,24.90
2018-08-22T13:18:54.751Z,24.90
2018-08-22T13:19:59.425Z,25.00
2018-08-22T13:21:04.089Z,25.00
2018-08-22T13:22:08.815Z,25.00
2018-08-22T13:23:13.618Z,25.00
2018-08-22T13:24:18.270Z,25.00
2018-08-22T13:25:22.725Z,25.00
2018-08-22T13:26:27.102Z,25.00
2018-08-22T13:27:32.140Z,25.00
2018-08-22T13:28:37.251Z,25.00
2018-08-22T13:29:42.535Z,25.00
2018-08-22T13:30:47.423Z,25.00
2018-08-22T13:31:52.071Z,25.00
2018-08-22T13:32:57.524Z,25.00
2018-08-22T13:34:02.291Z,25.00
2018-08-22T13:35:06.838Z,25.00
2018-08-22T13:36:11.256Z,25.00
2018-08-22T13:37:15.782Z,25.00
2018-08-22T13:38:21.496Z,25.00
2018-08-22T13:39:25.833Z,24.90
2018-08-22T13:40:30.200Z,25.00
2018-08-22T13:41:35.114Z,24.90
2018-08-22T13:42:39.954Z,25.00
2018-08-22T13:43:44.740Z,25.00
2018-08-22T13:44:50.132Z,25.00
2018-08-22T13:45:55.602Z,25.00
2018-08-22T13:47:00.148Z,25.00
2018-08-22T13:48:04.698Z,24.90
2018-08-22T13:49:09.208Z,24.90
2018-08-22T13:50:14.503Z,24.90